sensor_id;sensor_type;location;lat;lon;timestamp;temperature;humidity
47546;DHT22;50104;52.002;4.688;2023-12-28T00:00:34;9.90;93.00
47546;DHT22;50104;52.002;4.688;2023-12-28T00:05:35;10.00;93.10
47546;DHT22;50104;52.002;4.688;2023-12-28T00:10:36;10.00;93.30
47546;DHT22;50104;52.002;4.688;2023-12-28T00:15:38;10.00;93.40
47546;DHT22;50104;52.002;4.688;2023-12-28T00:20:38;10.00;93.70
47546;DHT22;50104;52.002;4.688;2023-12-28T00:25:39;10.10;93.70
47546;DHT22;50104;52.002;4.688;2023-12-28T00:30:40;10.10;93.70
47546;DHT22;50104;52.002;4.688;2023-12-28T00:35:41;10.10;93.70
47546;DHT22;50104;52.002;4.688;2023-12-28T00:40:42;10.10;93.60
47546;DHT22;50104;52.002;4.688;2023-12-28T00:45:43;10.10;93.60
47546;DHT22;50104;52.002;4.688;2023-12-28T00:50:43;10.10;93.50
47546;DHT22;50104;52.002;4.688;2023-12-28T00:55:44;10.10;93.60
47546;DHT22;50104;52.002;4.688;2023-12-28T01:00:45;10.10;93.60
47546;DHT22;50104;52.002;4.688;2023-12-28T01:05:46;10.20;93.50
47546;DHT22;50104;52.002;4.688;2023-12-28T01:10:50;10.20;93.40
47546;DHT22;50104;52.002;4.688;2023-12-28T01:15:51;10.20;93.30
47546;DHT22;50104;52.002;4.688;2023-12-28T01:20:52;10.10;93.30
47546;DHT22;50104;52.002;4.688;2023-12-28T01:25:55;10.10;93.30
47546;DHT22;50104;52.002;4.688;2023-12-28T01:30:57;10.10;93.20
47546;DHT22;50104;52.002;4.688;2023-12-28T01:35:58;10.10;93.30
47546;DHT22;50104;52.002;4.688;2023-12-28T01:40:59;10.10;93.30
47546;DHT22;50104;52.002;4.688;2023-12-28T01:45:59;10.10;93.30
47546;DHT22;50104;52.002;4.688;2023-12-28T01:51:02;10.10;93.20
47546;DHT22;50104;52.002;4.688;2023-12-28T01:56:03;10.10;93.20
47546;DHT22;50104;52.002;4.688;2023-12-28T02:01:05;10.10;93.20
47546;DHT22;50104;52.002;4.688;2023-12-28T02:06:07;10.10;93.20
47546;DHT22;50104;52.002;4.688;2023-12-28T02:11:08;10.10;93.30
47546;DHT22;50104;52.002;4.688;2023-12-28T02:16:17;10.10;93.30
47546;DHT22;50104;52.002;4.688;2023-12-28T02:21:22;10.10;93.20
47546;DHT22;50104;52.002;4.688;2023-12-28T02:26:25;10.00;93.30
47546;DHT22;50104;52.002;4.688;2023-12-28T02:31:32;10.00;93.30
47546;DHT22;50104;52.002;4.688;2023-12-28T02:36:41;10.00;93.30
47546;DHT22;50104;52.002;4.688;2023-12-28T02:41:44;10.00;93.20
47546;DHT22;50104;52.002;4.688;2023-12-28T02:46:45;10.00;93.20
47546;DHT22;50104;52.002;4.688;2023-12-28T02:51:46;10.00;93.20
47546;DHT22;50104;52.002;4.688;2023-12-28T02:56:48;10.00;93.30
47546;DHT22;50104;52.002;4.688;2023-12-28T03:01:50;10.00;93.40
47546;DHT22;50104;52.002;4.688;2023-12-28T03:06:51;10.00;93.30
47546;DHT22;50104;52.002;4.688;2023-12-28T03:11:52;10.00;93.20
47546;DHT22;50104;52.002;4.688;2023-12-28T03:16:52;9.90;93.20
47546;DHT22;50104;52.002;4.688;2023-12-28T03:21:53;9.90;93.30
47546;DHT22;50104;52.002;4.688;2023-12-28T03:26:54;9.90;93.30
47546;DHT22;50104;52.002;4.688;2023-12-28T03:31:55;9.90;93.20
47546;DHT22;50104;52.002;4.688;2023-12-28T03:36:56;9.90;93.10
47546;DHT22;50104;52.002;4.688;2023-12-28T03:42:01;9.90;93.10
47546;DHT22;50104;52.002;4.688;2023-12-28T03:47:02;9.90;93.20
47546;DHT22;50104;52.002;4.688;2023-12-28T03:52:04;9.80;93.10
47546;DHT22;50104;52.002;4.688;2023-12-28T03:57:06;9.80;93.30
47546;DHT22;50104;52.002;4.688;2023-12-28T04:02:07;9.80;93.30
47546;DHT22;50104;52.002;4.688;2023-12-28T04:07:08;9.80;93.30
47546;DHT22;50104;52.002;4.688;2023-12-28T04:12:09;9.80;93.40
47546;DHT22;50104;52.002;4.688;2023-12-28T04:17:09;9.70;93.40
47546;DHT22;50104;52.002;4.688;2023-12-28T04:22:10;9.80;93.60
47546;DHT22;50104;52.002;4.688;2023-12-28T04:27:11;9.80;93.60
47546;DHT22;50104;52.002;4.688;2023-12-28T04:32:13;9.80;93.60
47546;DHT22;50104;52.002;4.688;2023-12-28T04:37:13;9.90;93.40
47546;DHT22;50104;52.002;4.688;2023-12-28T04:42:14;9.90;93.30
47546;DHT22;50104;52.002;4.688;2023-12-28T04:47:15;10.00;93.10
47546;DHT22;50104;52.002;4.688;2023-12-28T04:52:16;10.00;92.90
47546;DHT22;50104;52.002;4.688;2023-12-28T04:57:17;10.00;92.90
47546;DHT22;50104;52.002;4.688;2023-12-28T05:02:17;10.10;92.70
47546;DHT22;50104;52.002;4.688;2023-12-28T05:07:18;10.10;92.40
47546;DHT22;50104;52.002;4.688;2023-12-28T05:12:19;10.20;92.30
47546;DHT22;50104;52.002;4.688;2023-12-28T05:17:20;10.20;92.00
47546;DHT22;50104;52.002;4.688;2023-12-28T05:22:20;10.20;92.10
47546;DHT22;50104;52.002;4.688;2023-12-28T05:27:21;10.30;92.10
47546;DHT22;50104;52.002;4.688;2023-12-28T05:32:22;10.30;91.70
47546;DHT22;50104;52.002;4.688;2023-12-28T05:37:23;10.30;91.60
47546;DHT22;50104;52.002;4.688;2023-12-28T05:42:25;10.40;91.50
47546;DHT22;50104;52.002;4.688;2023-12-28T05:47:26;10.40;91.30
47546;DHT22;50104;52.002;4.688;2023-12-28T05:52:27;10.40;91.30
47546;DHT22;50104;52.002;4.688;2023-12-28T05:57:30;10.40;91.10
47546;DHT22;50104;52.002;4.688;2023-12-28T06:02:31;10.50;91.10
47546;DHT22;50104;52.002;4.688;2023-12-28T06:07:33;10.50;90.90
47546;DHT22;50104;52.002;4.688;2023-12-28T06:12:34;10.50;91.00
47546;DHT22;50104;52.002;4.688;2023-12-28T06:17:35;10.50;90.80
47546;DHT22;50104;52.002;4.688;2023-12-28T06:22:37;10.50;90.70
47546;DHT22;50104;52.002;4.688;2023-12-28T06:27:37;10.50;90.60
47546;DHT22;50104;52.002;4.688;2023-12-28T06:32:39;10.50;90.40
47546;DHT22;50104;52.002;4.688;2023-12-28T06:37:40;10.50;90.30
47546;DHT22;50104;52.002;4.688;2023-12-28T06:42:43;10.50;90.10
47546;DHT22;50104;52.002;4.688;2023-12-28T06:47:44;10.50;89.90
47546;DHT22;50104;52.002;4.688;2023-12-28T06:52:45;10.50;89.80
47546;DHT22;50104;52.002;4.688;2023-12-28T06:57:47;10.50;89.60
47546;DHT22;50104;52.002;4.688;2023-12-28T07:02:48;10.50;89.70
47546;DHT22;50104;52.002;4.688;2023-12-28T07:07:49;10.50;89.70
47546;DHT22;50104;52.002;4.688;2023-12-28T07:12:50;10.40;89.70
47546;DHT22;50104;52.002;4.688;2023-12-28T07:17:52;10.40;89.50
47546;DHT22;50104;52.002;4.688;2023-12-28T07:22:53;10.30;89.70
47546;DHT22;50104;52.002;4.688;2023-12-28T07:27:54;10.30;89.80
47546;DHT22;50104;52.002;4.688;2023-12-28T07:32:55;10.20;89.90
47546;DHT22;50104;52.002;4.688;2023-12-28T07:37:56;10.20;90.10
47546;DHT22;50104;52.002;4.688;2023-12-28T07:42:59;10.20;90.20
47546;DHT22;50104;52.002;4.688;2023-12-28T07:48:02;10.20;90.30
47546;DHT22;50104;52.002;4.688;2023-12-28T07:53:04;10.30;90.30
47546;DHT22;50104;52.002;4.688;2023-12-28T07:58:05;10.30;90.50
47546;DHT22;50104;52.002;4.688;2023-12-28T08:03:06;10.30;90.30
47546;DHT22;50104;52.002;4.688;2023-12-28T08:08:07;10.30;90.20
47546;DHT22;50104;52.002;4.688;2023-12-28T08:13:09;10.30;90.10
47546;DHT22;50104;52.002;4.688;2023-12-28T08:18:10;10.30;90.10
47546;DHT22;50104;52.002;4.688;2023-12-28T08:23:11;10.30;90.10
47546;DHT22;50104;52.002;4.688;2023-12-28T08:28:13;10.30;90.20
47546;DHT22;50104;52.002;4.688;2023-12-28T08:33:14;10.40;90.30
47546;DHT22;50104;52.002;4.688;2023-12-28T08:38:15;10.40;90.30
47546;DHT22;50104;52.002;4.688;2023-12-28T08:43:17;10.40;90.30
47546;DHT22;50104;52.002;4.688;2023-12-28T08:48:18;10.40;90.20
47546;DHT22;50104;52.002;4.688;2023-12-28T08:53:39;10.50;90.30
47546;DHT22;50104;52.002;4.688;2023-12-28T08:59:04;10.50;89.90
47546;DHT22;50104;52.002;4.688;2023-12-28T09:04:26;10.50;89.70
47546;DHT22;50104;52.002;4.688;2023-12-28T09:09:47;10.50;90.10
47546;DHT22;50104;52.002;4.688;2023-12-28T09:14:48;10.60;89.90
47546;DHT22;50104;52.002;4.688;2023-12-28T09:19:50;10.60;90.00
47546;DHT22;50104;52.002;4.688;2023-12-28T09:24:51;10.60;89.80
47546;DHT22;50104;52.002;4.688;2023-12-28T09:29:52;10.70;89.60
47546;DHT22;50104;52.002;4.688;2023-12-28T09:34:54;10.70;89.70
47546;DHT22;50104;52.002;4.688;2023-12-28T09:39:55;10.70;89.70
47546;DHT22;50104;52.002;4.688;2023-12-28T09:44:56;10.80;89.70
47546;DHT22;50104;52.002;4.688;2023-12-28T09:49:57;10.80;89.80
47546;DHT22;50104;52.002;4.688;2023-12-28T09:55:00;10.80;89.80
47546;DHT22;50104;52.002;4.688;2023-12-28T10:00:01;10.80;89.60
47546;DHT22;50104;52.002;4.688;2023-12-28T10:05:06;10.80;89.60
47546;DHT22;50104;52.002;4.688;2023-12-28T10:10:07;10.90;89.50
47546;DHT22;50104;52.002;4.688;2023-12-28T10:15:09;10.90;89.30
47546;DHT22;50104;52.002;4.688;2023-12-28T10:20:11;10.90;89.50
47546;DHT22;50104;52.002;4.688;2023-12-28T10:25:13;10.90;89.10
47546;DHT22;50104;52.002;4.688;2023-12-28T10:30:14;11.00;88.90
47546;DHT22;50104;52.002;4.688;2023-12-28T10:35:15;11.00;89.10
47546;DHT22;50104;52.002;4.688;2023-12-28T10:40:18;11.10;88.70
47546;DHT22;50104;52.002;4.688;2023-12-28T10:45:25;11.10;88.80
47546;DHT22;50104;52.002;4.688;2023-12-28T10:50:28;11.10;88.60
47546;DHT22;50104;52.002;4.688;2023-12-28T10:55:40;11.10;88.60
47546;DHT22;50104;52.002;4.688;2023-12-28T11:00:49;11.20;88.60
47546;DHT22;50104;52.002;4.688;2023-12-28T11:05:55;11.20;88.20
47546;DHT22;50104;52.002;4.688;2023-12-28T11:10:57;11.20;88.30
47546;DHT22;50104;52.002;4.688;2023-12-28T11:16:01;11.20;88.20
47546;DHT22;50104;52.002;4.688;2023-12-28T11:21:03;11.20;88.00
47546;DHT22;50104;52.002;4.688;2023-12-28T11:26:18;11.20;87.90
47546;DHT22;50104;52.002;4.688;2023-12-28T11:31:21;11.20;87.90
47546;DHT22;50104;52.002;4.688;2023-12-28T11:36:46;11.20;88.00
47546;DHT22;50104;52.002;4.688;2023-12-28T11:41:59;11.30;87.80
47546;DHT22;50104;52.002;4.688;2023-12-28T11:47:20;11.30;88.00
47546;DHT22;50104;52.002;4.688;2023-12-28T11:52:24;11.30;87.80
47546;DHT22;50104;52.002;4.688;2023-12-28T11:57:26;11.30;87.90
47546;DHT22;50104;52.002;4.688;2023-12-28T12:02:27;11.40;87.90
47546;DHT22;50104;52.002;4.688;2023-12-28T12:07:29;11.40;87.40
47546;DHT22;50104;52.002;4.688;2023-12-28T12:12:30;11.50;87.30
47546;DHT22;50104;52.002;4.688;2023-12-28T12:17:31;11.50;87.10
47546;DHT22;50104;52.002;4.688;2023-12-28T12:22:32;11.60;86.90
47546;DHT22;50104;52.002;4.688;2023-12-28T12:27:34;11.60;87.00
47546;DHT22;50104;52.002;4.688;2023-12-28T12:32:37;11.70;86.90
47546;DHT22;50104;52.002;4.688;2023-12-28T12:37:40;11.70;86.70
47546;DHT22;50104;52.002;4.688;2023-12-28T12:42:41;11.70;86.90
47546;DHT22;50104;52.002;4.688;2023-12-28T12:47:42;11.70;86.30
47546;DHT22;50104;52.002;4.688;2023-12-28T12:52:43;11.80;86.40
47546;DHT22;50104;52.002;4.688;2023-12-28T12:57:45;11.80;86.20
47546;DHT22;50104;52.002;4.688;2023-12-28T13:02:46;11.80;86.10
47546;DHT22;50104;52.002;4.688;2023-12-28T13:07:47;11.70;86.10
47546;DHT22;50104;52.002;4.688;2023-12-28T13:12:48;11.70;86.00
47546;DHT22;50104;52.002;4.688;2023-12-28T13:17:49;11.70;86.20
47546;DHT22;50104;52.002;4.688;2023-12-28T13:22:50;11.70;86.00
47546;DHT22;50104;52.002;4.688;2023-12-28T13:27:51;11.70;86.10
47546;DHT22;50104;52.002;4.688;2023-12-28T13:32:52;11.70;86.40
47546;DHT22;50104;52.002;4.688;2023-12-28T13:37:53;11.70;86.30
47546;DHT22;50104;52.002;4.688;2023-12-28T13:42:54;11.70;86.70
47546;DHT22;50104;52.002;4.688;2023-12-28T13:47:55;11.70;87.20
47546;DHT22;50104;52.002;4.688;2023-12-28T13:52:56;11.60;87.10
47546;DHT22;50104;52.002;4.688;2023-12-28T13:57:57;11.60;87.00
47546;DHT22;50104;52.002;4.688;2023-12-28T14:02:57;11.60;87.20
47546;DHT22;50104;52.002;4.688;2023-12-28T14:07:59;11.50;87.70
47546;DHT22;50104;52.002;4.688;2023-12-28T14:13:00;11.50;88.00
47546;DHT22;50104;52.002;4.688;2023-12-28T14:18:02;11.40;88.20
47546;DHT22;50104;52.002;4.688;2023-12-28T14:23:06;11.30;88.20
47546;DHT22;50104;52.002;4.688;2023-12-28T14:28:07;11.30;88.20
47546;DHT22;50104;52.002;4.688;2023-12-28T14:33:09;11.30;88.50
47546;DHT22;50104;52.002;4.688;2023-12-28T14:38:12;11.20;88.60
47546;DHT22;50104;52.002;4.688;2023-12-28T14:43:13;11.20;88.60
47546;DHT22;50104;52.002;4.688;2023-12-28T14:48:14;11.20;88.60
47546;DHT22;50104;52.002;4.688;2023-12-28T14:53:16;11.10;88.50
47546;DHT22;50104;52.002;4.688;2023-12-28T14:58:17;11.10;88.40
47546;DHT22;50104;52.002;4.688;2023-12-28T15:03:20;11.10;88.10
47546;DHT22;50104;52.002;4.688;2023-12-28T15:08:25;11.10;88.10
47546;DHT22;50104;52.002;4.688;2023-12-28T15:13:26;11.10;88.00
47546;DHT22;50104;52.002;4.688;2023-12-28T15:18:30;11.10;88.00
47546;DHT22;50104;52.002;4.688;2023-12-28T15:23:31;11.10;87.90
47546;DHT22;50104;52.002;4.688;2023-12-28T15:28:33;11.10;87.60
47546;DHT22;50104;52.002;4.688;2023-12-28T15:33:34;11.10;87.50
47546;DHT22;50104;52.002;4.688;2023-12-28T15:38:35;11.10;87.40
47546;DHT22;50104;52.002;4.688;2023-12-28T15:43:36;11.10;87.20
47546;DHT22;50104;52.002;4.688;2023-12-28T15:48:37;11.10;87.20
47546;DHT22;50104;52.002;4.688;2023-12-28T15:53:38;11.00;87.20
47546;DHT22;50104;52.002;4.688;2023-12-28T15:58:41;11.00;87.10
47546;DHT22;50104;52.002;4.688;2023-12-28T16:03:44;11.00;86.80
47546;DHT22;50104;52.002;4.688;2023-12-28T16:08:45;11.00;86.90
47546;DHT22;50104;52.002;4.688;2023-12-28T16:13:46;11.00;87.00
47546;DHT22;50104;52.002;4.688;2023-12-28T16:18:48;11.00;86.90
47546;DHT22;50104;52.002;4.688;2023-12-28T16:23:50;10.90;87.00
47546;DHT22;50104;52.002;4.688;2023-12-28T16:28:51;10.90;86.90
47546;DHT22;50104;52.002;4.688;2023-12-28T16:33:53;10.90;87.00
47546;DHT22;50104;52.002;4.688;2023-12-28T16:38:55;10.90;86.50
47546;DHT22;50104;52.002;4.688;2023-12-28T16:43:57;10.90;86.70
47546;DHT22;50104;52.002;4.688;2023-12-28T16:48:59;10.90;86.60
47546;DHT22;50104;52.002;4.688;2023-12-28T16:54:00;10.90;86.30
47546;DHT22;50104;52.002;4.688;2023-12-28T16:59:01;10.90;86.40
47546;DHT22;50104;52.002;4.688;2023-12-28T17:04:02;10.90;86.30
47546;DHT22;50104;52.002;4.688;2023-12-28T17:09:04;10.90;86.10
47546;DHT22;50104;52.002;4.688;2023-12-28T17:14:10;10.90;86.20
47546;DHT22;50104;52.002;4.688;2023-12-28T17:19:11;10.90;86.10
47546;DHT22;50104;52.002;4.688;2023-12-28T17:24:17;10.90;85.70
47546;DHT22;50104;52.002;4.688;2023-12-28T17:29:20;10.90;85.90
47546;DHT22;50104;52.002;4.688;2023-12-28T17:34:22;10.90;86.00
47546;DHT22;50104;52.002;4.688;2023-12-28T17:39:24;10.90;86.00
47546;DHT22;50104;52.002;4.688;2023-12-28T17:44:30;10.90;86.10
47546;DHT22;50104;52.002;4.688;2023-12-28T17:49:32;10.90;85.90
47546;DHT22;50104;52.002;4.688;2023-12-28T17:54:34;10.90;85.90
47546;DHT22;50104;52.002;4.688;2023-12-28T17:59:35;10.90;85.80
47546;DHT22;50104;52.002;4.688;2023-12-28T18:04:36;10.90;86.10
47546;DHT22;50104;52.002;4.688;2023-12-28T18:09:37;10.90;85.70
47546;DHT22;50104;52.002;4.688;2023-12-28T18:14:41;10.90;85.80
47546;DHT22;50104;52.002;4.688;2023-12-28T18:19:42;10.90;85.90
47546;DHT22;50104;52.002;4.688;2023-12-28T18:24:46;10.90;86.00
47546;DHT22;50104;52.002;4.688;2023-12-28T18:29:50;10.90;85.80
47546;DHT22;50104;52.002;4.688;2023-12-28T18:34:53;10.90;85.80
47546;DHT22;50104;52.002;4.688;2023-12-28T18:39:54;11.00;85.70
47546;DHT22;50104;52.002;4.688;2023-12-28T18:44:57;10.90;85.80
47546;DHT22;50104;52.002;4.688;2023-12-28T18:49:58;11.00;85.80
47546;DHT22;50104;52.002;4.688;2023-12-28T18:55:00;11.00;85.80
47546;DHT22;50104;52.002;4.688;2023-12-28T19:00:03;11.00;85.70
47546;DHT22;50104;52.002;4.688;2023-12-28T19:05:05;11.00;85.70
47546;DHT22;50104;52.002;4.688;2023-12-28T19:10:06;11.00;85.50
47546;DHT22;50104;52.002;4.688;2023-12-28T19:15:08;11.00;85.60
47546;DHT22;50104;52.002;4.688;2023-12-28T19:20:10;11.00;85.60
47546;DHT22;50104;52.002;4.688;2023-12-28T19:25:12;11.00;85.70
47546;DHT22;50104;52.002;4.688;2023-12-28T19:30:15;11.00;85.50
47546;DHT22;50104;52.002;4.688;2023-12-28T19:35:16;11.00;85.50
47546;DHT22;50104;52.002;4.688;2023-12-28T19:40:18;11.00;85.60
47546;DHT22;50104;52.002;4.688;2023-12-28T19:45:20;11.00;85.70
47546;DHT22;50104;52.002;4.688;2023-12-28T19:50:21;11.00;85.70
47546;DHT22;50104;52.002;4.688;2023-12-28T19:55:22;11.00;85.60
47546;DHT22;50104;52.002;4.688;2023-12-28T20:00:23;11.00;85.50
47546;DHT22;50104;52.002;4.688;2023-12-28T20:05:23;11.00;85.60
47546;DHT22;50104;52.002;4.688;2023-12-28T20:10:24;11.00;85.50
47546;DHT22;50104;52.002;4.688;2023-12-28T20:15:27;11.00;85.50
47546;DHT22;50104;52.002;4.688;2023-12-28T20:20:28;11.00;85.70
47546;DHT22;50104;52.002;4.688;2023-12-28T20:25:29;11.00;85.80
47546;DHT22;50104;52.002;4.688;2023-12-28T20:30:34;11.00;85.80
47546;DHT22;50104;52.002;4.688;2023-12-28T20:35:35;11.00;85.70
47546;DHT22;50104;52.002;4.688;2023-12-28T20:40:36;10.90;85.70
47546;DHT22;50104;52.002;4.688;2023-12-28T20:45:37;10.90;85.70
47546;DHT22;50104;52.002;4.688;2023-12-28T20:50:38;11.00;85.70
47546;DHT22;50104;52.002;4.688;2023-12-28T20:55:39;10.90;85.80
47546;DHT22;50104;52.002;4.688;2023-12-28T21:00:40;10.90;85.70
47546;DHT22;50104;52.002;4.688;2023-12-28T21:05:41;10.90;85.70
47546;DHT22;50104;52.002;4.688;2023-12-28T21:10:42;10.90;85.80
47546;DHT22;50104;52.002;4.688;2023-12-28T21:15:44;10.90;85.70
47546;DHT22;50104;52.002;4.688;2023-12-28T21:20:46;10.90;85.90
47546;DHT22;50104;52.002;4.688;2023-12-28T21:25:48;10.90;85.90
47546;DHT22;50104;52.002;4.688;2023-12-28T21:30:49;10.90;85.80
47546;DHT22;50104;52.002;4.688;2023-12-28T21:35:50;10.90;86.00
47546;DHT22;50104;52.002;4.688;2023-12-28T21:40:52;11.00;86.00
47546;DHT22;50104;52.002;4.688;2023-12-28T21:45:53;11.00;86.00
47546;DHT22;50104;52.002;4.688;2023-12-28T21:50:54;11.00;85.90
47546;DHT22;50104;52.002;4.688;2023-12-28T21:55:55;11.00;86.40
47546;DHT22;50104;52.002;4.688;2023-12-28T22:00:56;11.00;86.80
47546;DHT22;50104;52.002;4.688;2023-12-28T22:05:57;11.00;87.10
47546;DHT22;50104;52.002;4.688;2023-12-28T22:11:01;10.90;87.30
47546;DHT22;50104;52.002;4.688;2023-12-28T22:16:03;10.90;87.60
47546;DHT22;50104;52.002;4.688;2023-12-28T22:21:05;10.90;87.70
47546;DHT22;50104;52.002;4.688;2023-12-28T22:26:06;10.80;88.30
47546;DHT22;50104;52.002;4.688;2023-12-28T22:31:08;10.80;88.30
47546;DHT22;50104;52.002;4.688;2023-12-28T22:36:09;10.80;88.30
47546;DHT22;50104;52.002;4.688;2023-12-28T22:41:10;10.70;88.30
47546;DHT22;50104;52.002;4.688;2023-12-28T22:46:11;10.70;88.60
47546;DHT22;50104;52.002;4.688;2023-12-28T22:51:15;10.60;89.10
47546;DHT22;50104;52.002;4.688;2023-12-28T22:56:16;10.60;89.40
47546;DHT22;50104;52.002;4.688;2023-12-28T23:01:20;10.50;89.60
47546;DHT22;50104;52.002;4.688;2023-12-28T23:06:22;10.50;89.70
47546;DHT22;50104;52.002;4.688;2023-12-28T23:11:22;10.50;89.90
47546;DHT22;50104;52.002;4.688;2023-12-28T23:16:23;10.50;90.00
47546;DHT22;50104;52.002;4.688;2023-12-28T23:21:24;10.40;89.70
47546;DHT22;50104;52.002;4.688;2023-12-28T23:26:25;10.40;89.80
47546;DHT22;50104;52.002;4.688;2023-12-28T23:31:26;10.40;89.80
47546;DHT22;50104;52.002;4.688;2023-12-28T23:36:27;10.40;89.60
47546;DHT22;50104;52.002;4.688;2023-12-28T23:41:30;10.50;89.80
47546;DHT22;50104;52.002;4.688;2023-12-28T23:46:31;10.50;89.90
47546;DHT22;50104;52.002;4.688;2023-12-28T23:51:32;10.50;90.00
47546;DHT22;50104;52.002;4.688;2023-12-28T23:56:33;10.50;90.40
